Time;durP1;ratioP1;P1;durP2;ratioP2;P2;SDS_P1;SDS_P2;PMS_P1;PMS_P2;Temp;Humidity;BMP_temperature;BMP_pressure;BME280_temperature;BME280_humidity;BME280_pressure;Samples;Min_cycle;Max_cycle;Signal;HPM_P1;HPM_P2
2022/10/16 00:00:54;;;;;;;;;;;;;;;20.47;64.99;101728.63;7406867;19;1527;-57
2022/10/16 00:03:22;;;;;;;;;;;;;;;20.49;65.19;101744.63;7407304;19;1449;-57
2022/10/16 00:05:53;;;;;;;;;;;;;;;20.48;65.00;101743.78;7408931;19;1074;-57
2022/10/16 00:08:21;;;;;;;;;;;;;;;20.47;65.23;101731.31;7406873;19;1875;-57
2022/10/16 00:10:49;;;;;;;;;;;;;;;20.45;65.18;101736.81;7407159;19;1483;-57
2022/10/16 00:13:19;;;;;;;;;;;;;;;20.46;64.91;101737.66;7406428;19;1925;-57
2022/10/16 00:15:47;;;;;;;;;;;;;;;20.43;64.85;101736.09;7407619;19;1296;-57
2022/10/16 00:18:16;;;;;;;;;;;;;;;20.45;65.00;101746.69;7407737;19;1903;-57
2022/10/16 00:20:44;;;;;;;;;;;;;;;20.48;64.78;101746.47;7407748;19;1397;-57
2022/10/16 00:23:15;;;;;;;;;;;;;;;20.44;64.96;101737.78;7406673;19;1765;-57
2022/10/16 00:25:44;;;;;;;;;;;;;;;20.44;65.02;101751.22;7407048;19;1716;-57
2022/10/16 00:28:12;;;;;;;;;;;;;;;20.45;65.11;101757.44;7405098;19;1879;-57
2022/10/16 00:30:40;;;;;;;;;;;;;;;20.43;65.05;101754.00;7407116;19;1573;-57
2022/10/16 00:33:09;;;;;;;;;;;;;;;20.41;65.12;101756.84;7407680;19;1538;-57
2022/10/16 00:35:37;;;;;;;;;;;;;;;20.40;64.76;101748.91;7407164;19;1423;-57
2022/10/16 00:38:05;;;;;;;;;;;;;;;20.43;64.95;101756.69;7404306;19;1909;-57
2022/10/16 00:40:36;;;;;;;;;;;;;;;20.43;64.67;101773.69;7406216;19;1620;-57
2022/10/16 00:43:04;;;;;;;;;;;;;;;20.42;64.91;101755.84;7406305;19;1494;-57
2022/10/16 00:45:33;;;;;;;;;;;;;;;20.44;64.63;101758.44;7406247;19;1307;-57
2022/10/16 00:48:01;;;;;;;;;;;;;;;20.41;64.67;101751.47;7407063;19;1860;-57
2022/10/16 00:50:32;;;;;;;;;;;;;;;20.45;64.71;101765.50;7405831;19;1696;-57
2022/10/16 00:53:01;;;;;;;;;;;;;;;20.39;64.66;101766.84;7405677;19;1687;-57
2022/10/16 00:55:30;;;;;;;;;;;;;;;20.40;64.50;101773.09;7404998;19;1728;-57
2022/10/16 00:58:02;;;;;;;;;;;;;;;20.40;64.56;101759.66;7406180;19;1621;-62
2022/10/16 01:00:30;;;;;;;;;;;;;;;20.43;64.48;101780.88;7406987;19;1644;-62
2022/10/16 01:03:01;;;;;;;;;;;;;;;20.68;64.11;101785.22;7406413;19;1657;-57
2022/10/16 01:05:33;;;;;;;;;;;;;;;21.22;62.27;101775.50;7405885;19;1758;-57
2022/10/16 01:08:07;;;;;;;;;;;;;;;22.10;59.89;101766.38;7404534;19;1846;-57
2022/10/16 01:10:37;;;;;;;;;;;;;;;22.44;59.28;101763.47;7405126;19;1657;-57
2022/10/16 01:13:09;;;;;;;;;;;;;;;22.82;58.07;101762.81;7405059;19;1513;-57
2022/10/16 01:15:40;;;;;;;;;;;;;;;22.73;58.44;101770.84;7406168;19;1349;-57
2022/10/16 01:18:11;;;;;;;;;;;;;;;22.73;58.60;101773.56;7406309;19;1510;-57
2022/10/16 01:20:43;;;;;;;;;;;;;;;22.63;58.72;101766.25;7405385;19;1265;-57
2022/10/16 01:23:17;;;;;;;;;;;;;;;22.57;58.90;101774.91;7404592;19;1668;-57
2022/10/16 01:25:56;;;;;;;;;;;;;;;22.67;58.66;101768.72;7404879;19;1628;-58
2022/10/16 01:28:30;;;;;;;;;;;;;;;22.69;58.51;101781.06;7403920;19;1887;-57
2022/10/16 01:31:01;;;;;;;;;;;;;;;22.69;58.65;101785.59;7403926;19;1569;-57
2022/10/16 01:33:31;;;;;;;;;;;;;;;22.68;58.73;101775.78;7403821;19;1479;-57
2022/10/16 01:36:03;;;;;;;;;;;;;;;22.81;58.47;101776.41;7404933;19;1451;-57
2022/10/16 01:38:34;;;;;;;;;;;;;;;22.42;59.46;101774.41;7404584;19;1770;-57
2022/10/16 01:41:03;;;;;;;;;;;;;;;21.97;60.41;101773.81;7404344;19;1557;-57
2022/10/16 01:43:37;;;;;;;;;;;;;;;21.98;60.92;101795.19;7403681;19;1533;-57
2022/10/16 01:46:06;;;;;;;;;;;;;;;22.36;59.75;101774.94;7404272;19;1534;-57
2022/10/16 01:48:35;;;;;;;;;;;;;;;22.77;58.66;101783.94;7403626;19;1857;-57
2022/10/16 01:51:06;;;;;;;;;;;;;;;22.89;58.52;101773.88;7404636;19;1657;-57
2022/10/16 01:53:35;;;;;;;;;;;;;;;22.84;58.45;101781.56;7404615;19;1608;-63
2022/10/16 01:56:06;;;;;;;;;;;;;;;22.27;59.96;101781.13;7404756;19;1557;-64
2022/10/16 01:58:39;;;;;;;;;;;;;;;21.93;61.04;101794.75;7404468;19;1558;-64
2022/10/16 02:01:09;;;;;;;;;;;;;;;22.24;60.22;101787.63;7397168;19;1542;-57
2022/10/16 02:03:40;;;;;;;;;;;;;;;22.56;59.25;101797.47;7400923;19;1389;-58
2022/10/16 02:06:09;;;;;;;;;;;;;;;22.83;58.40;101796.88;7400471;19;1629;-57
2022/10/16 02:08:38;;;;;;;;;;;;;;;22.40;59.57;101792.56;7402008;19;1869;-57
2022/10/16 02:11:07;;;;;;;;;;;;;;;21.96;60.88;101791.78;7405159;19;1852;-63
2022/10/16 02:13:40;;;;;;;;;;;;;;;22.14;60.60;101810.91;7402526;19;1656;-63
2022/10/16 02:16:08;;;;;;;;;;;;;;;22.55;59.32;101787.66;7403293;19;1554;-64
2022/10/16 02:18:37;;;;;;;;;;;;;;;22.83;58.64;101793.31;7404004;19;1604;-64
2022/10/16 02:21:11;;;;;;;;;;;;;;;22.84;58.48;101812.06;7403105;19;1503;-64
2022/10/16 02:23:43;;;;;;;;;;;;;;;22.34;59.83;101805.69;7403255;19;2162;-63
2022/10/16 02:26:14;;;;;;;;;;;;;;;21.93;61.19;101813.59;7404123;19;1589;-64
2022/10/16 02:28:47;;;;;;;;;;;;;;;22.20;60.43;101826.56;7402011;19;1849;-64
2022/10/16 02:31:21;;;;;;;;;;;;;;;22.61;59.11;101816.78;7402377;19;1601;-64
2022/10/16 02:33:49;;;;;;;;;;;;;;;22.85;58.47;101812.91;7402918;19;1511;-64
2022/10/16 02:36:17;;;;;;;;;;;;;;;22.77;58.77;101823.53;7402546;19;1535;-64
2022/10/16 02:38:45;;;;;;;;;;;;;;;22.31;59.87;101822.13;7409886;19;1305;-66
2022/10/16 02:41:14;;;;;;;;;;;;;;;22.10;61.23;101831.00;7409147;19;1486;-62
2022/10/16 02:43:42;;;;;;;;;;;;;;;22.38;60.67;101812.53;7408705;19;1334;-62
2022/10/16 02:46:13;;;;;;;;;;;;;;;22.65;60.15;101814.66;7407741;19;1292;-62
2022/10/16 02:48:41;;;;;;;;;;;;;;;22.94;59.75;101822.91;7408887;19;1861;-62
2022/10/16 02:51:10;;;;;;;;;;;;;;;22.81;60.27;101815.03;7409907;19;1636;-62
2022/10/16 02:53:38;;;;;;;;;;;;;;;22.30;62.19;101825.81;7409710;19;1490;-62
2022/10/16 02:56:06;;;;;;;;;;;;;;;21.97;63.01;101819.59;7410213;19;1580;-62
2022/10/16 02:58:35;;;;;;;;;;;;;;;22.16;62.59;101833.22;7407359;19;1220;-62
2022/10/16 03:01:03;;;;;;;;;;;;;;;22.50;61.40;101819.56;7407681;19;1257;-62
2022/10/16 03:03:34;;;;;;;;;;;;;;;22.69;61.04;101820.66;7408919;19;1343;-62
2022/10/16 03:06:02;;;;;;;;;;;;;;;22.78;60.79;101826.09;7408186;19;1300;-62
2022/10/16 03:08:31;;;;;;;;;;;;;;;22.40;62.08;101827.59;7408452;19;1856;-62
2022/10/16 03:10:59;;;;;;;;;;;;;;;21.95;63.09;101843.09;7408916;19;1277;-62
2022/10/16 03:13:27;;;;;;;;;;;;;;;21.85;63.04;101838.47;7407646;19;1280;-63
2022/10/16 03:15:56;;;;;;;;;;;;;;;22.18;62.00;101842.03;7407666;19;1134;-62
2022/10/16 03:18:24;;;;;;;;;;;;;;;22.27;61.66;101836.88;7407572;19;1652;-57
2022/10/16 03:20:55;;;;;;;;;;;;;;;22.36;61.32;101839.63;7408041;19;1402;-57
2022/10/16 03:23:23;;;;;;;;;;;;;;;22.38;61.29;101843.03;7407952;19;1298;-57
2022/10/16 03:25:52;;;;;;;;;;;;;;;22.32;61.53;101845.38;7406892;19;1522;-57
2022/10/16 03:28:20;;;;;;;;;;;;;;;22.43;61.21;101823.78;7406081;19;1854;-57
2022/10/16 03:30:48;;;;;;;;;;;;;;;22.44;61.16;101838.94;7407744;19;1438;-57
2022/10/16 03:33:17;;;;;;;;;;;;;;;22.45;61.10;101856.84;7407013;19;1778;-57
2022/10/16 03:35:45;;;;;;;;;;;;;;;22.43;61.11;101848.03;7407334;19;1445;-57
2022/10/16 03:38:16;;;;;;;;;;;;;;;22.42;61.30;101851.69;7405181;19;1476;-58
2022/10/16 03:40:44;;;;;;;;;;;;;;;22.52;60.71;101860.72;7405716;19;1585;-57
2022/10/16 03:43:12;;;;;;;;;;;;;;;22.33;61.37;101849.81;7408677;19;1322;-57
2022/10/16 03:45:41;;;;;;;;;;;;;;;21.99;62.46;101860.72;7405376;19;1226;-57
2022/10/16 03:48:09;;;;;;;;;;;;;;;21.80;63.28;101859.53;7405427;19;1636;-57
2022/10/16 03:50:37;;;;;;;;;;;;;;;22.20;61.87;101837.34;7403649;19;1873;-57
2022/10/16 03:53:06;;;;;;;;;;;;;;;22.70;60.37;101839.41;7405814;19;1336;-58
2022/10/16 03:55:37;;;;;;;;;;;;;;;22.96;59.67;101839.81;7405789;19;1668;-58
2022/10/16 03:58:05;;;;;;;;;;;;;;;22.48;60.78;101840.38;7407556;19;1383;-58
2022/10/16 04:00:34;;;;;;;;;;;;;;;22.05;61.63;101846.72;7406460;19;1538;-58
2022/10/16 04:03:02;;;;;;;;;;;;;;;21.87;62.16;101850.97;7407834;19;1470;-58
2022/10/16 04:05:30;;;;;;;;;;;;;;;21.76;62.79;101860.78;7405232;19;1545;-57
2022/10/16 04:07:59;;;;;;;;;;;;;;;21.64;62.93;101851.88;7407039;19;1517;-57
2022/10/16 04:10:28;;;;;;;;;;;;;;;21.59;63.10;101864.88;7404238;19;1844;-58
2022/10/16 04:12:59;;;;;;;;;;;;;;;21.53;63.50;101868.06;7406979;19;1774;-62
2022/10/16 04:15:28;;;;;;;;;;;;;;;21.49;63.37;101865.72;7407267;19;1436;-62
2022/10/16 04:17:56;;;;;;;;;;;;;;;21.41;63.36;101866.34;7408230;19;1731;-62
2022/10/16 04:20:24;;;;;;;;;;;;;;;21.32;63.23;101857.19;7406625;19;1764;-62
2022/10/16 04:22:53;;;;;;;;;;;;;;;21.26;63.36;101860.38;7406196;19;1541;-62
2022/10/16 04:25:21;;;;;;;;;;;;;;;21.22;63.24;101850.84;7406754;19;1339;-62
2022/10/16 04:27:49;;;;;;;;;;;;;;;21.14;63.45;101853.28;7406916;19;1282;-62
2022/10/16 04:30:20;;;;;;;;;;;;;;;21.13;63.24;101867.69;7405063;19;1857;-62
2022/10/16 04:32:50;;;;;;;;;;;;;;;21.12;63.27;101855.25;7405926;19;1738;-62
2022/10/16 04:35:19;;;;;;;;;;;;;;;21.12;63.15;101860.63;7406574;19;1538;-62
2022/10/16 04:37:47;;;;;;;;;;;;;;;21.10;63.41;101870.66;7404105;19;1672;-62
2022/10/16 04:40:15;;;;;;;;;;;;;;;21.03;63.58;101865.75;7406675;19;1349;-62
2022/10/16 04:42:44;;;;;;;;;;;;;;;21.01;63.20;101875.78;7406359;19;1266;-62
2022/10/16 04:45:12;;;;;;;;;;;;;;;21.02;63.47;101893.63;7405781;19;1762;-62
2022/10/16 04:47:43;;;;;;;;;;;;;;;21.00;63.38;101882.13;7402069;19;1337;-62
2022/10/16 04:50:11;;;;;;;;;;;;;;;21.02;63.65;101888.25;7399067;19;1861;-60
2022/10/16 04:52:40;;;;;;;;;;;;;;;21.08;63.87;101896.81;7393873;19;1523;-64
2022/10/16 04:55:09;;;;;;;;;;;;;;;21.10;63.80;101889.47;7399330;19;1514;-64
2022/10/16 04:57:37;;;;;;;;;;;;;;;21.12;64.13;101899.13;7404526;19;1770;-64
2022/10/16 05:00:06;;;;;;;;;;;;;;;21.19;64.01;101894.97;7402975;19;1308;-62
2022/10/16 05:02:34;;;;;;;;;;;;;;;21.15;63.75;101906.09;7401353;19;1404;-62
2022/10/16 05:05:05;;;;;;;;;;;;;;;21.16;64.00;101905.13;7403288;19;1265;-62
2022/10/16 05:07:33;;;;;;;;;;;;;;;21.25;64.24;101904.41;7404473;19;1545;-63
2022/10/16 05:10:02;;;;;;;;;;;;;;;21.20;64.00;101903.91;7400898;19;1885;-67
2022/10/16 05:12:30;;;;;;;;;;;;;;;21.19;64.10;101899.50;7401652;19;1613;-63
2022/10/16 05:14:58;;;;;;;;;;;;;;;21.15;64.27;101915.03;7404333;19;1667;-65
2022/10/16 05:17:27;;;;;;;;;;;;;;;21.21;64.41;101922.63;7402334;19;1530;-63
2022/10/16 05:19:55;;;;;;;;;;;;;;;21.19;64.50;101926.41;7403933;19;1473;-67
2022/10/16 05:22:27;;;;;;;;;;;;;;;21.19;64.44;101932.66;7404109;19;1400;-62
2022/10/16 05:24:56;;;;;;;;;;;;;;;21.20;64.36;101930.81;7404346;19;1483;-59
2022/10/16 05:27:24;;;;;;;;;;;;;;;21.20;64.78;101933.50;7405048;19;1273;-60
2022/10/16 05:29:52;;;;;;;;;;;;;;;21.20;64.21;101945.09;7402598;19;1868;-62
2022/10/16 05:32:21;;;;;;;;;;;;;;;21.23;64.01;101960.16;7400098;19;1546;-57
2022/10/16 05:34:49;;;;;;;;;;;;;;;21.22;63.49;101963.81;7402310;19;1305;-58
2022/10/16 05:37:17;;;;;;;;;;;;;;;21.24;63.88;101938.50;7400909;19;1481;-58
2022/10/16 05:39:48;;;;;;;;;;;;;;;21.31;63.84;101959.53;7403426;19;1334;-58
2022/10/16 05:42:17;;;;;;;;;;;;;;;21.29;64.07;101951.59;7403793;19;1294;-58
2022/10/16 05:44:45;;;;;;;;;;;;;;;21.30;63.83;101956.00;7403065;19;1428;-58
2022/10/16 05:47:15;;;;;;;;;;;;;;;21.30;64.15;101963.22;7403541;19;1361;-58
2022/10/16 05:49:43;;;;;;;;;;;;;;;21.31;64.20;101967.59;7401416;19;1861;-58
2022/10/16 05:52:11;;;;;;;;;;;;;;;21.33;64.02;101961.16;7402583;19;1374;-57
2022/10/16 05:54:40;;;;;;;;;;;;;;;21.34;64.22;101962.84;7403309;19;1402;-57
2022/10/16 05:57:10;;;;;;;;;;;;;;;21.38;64.08;101983.16;7403431;19;1173;-58
2022/10/16 05:59:39;;;;;;;;;;;;;;;21.35;64.49;101972.63;7402302;19;1314;-58
2022/10/16 06:02:07;;;;;;;;;;;;;;;21.35;64.36;101975.34;7404155;19;1421;-58
2022/10/16 06:04:36;;;;;;;;;;;;;;;21.38;64.47;101980.44;7402674;19;1237;-63
2022/10/16 06:07:04;;;;;;;;;;;;;;;21.42;64.31;101989.16;7401195;19;1492;-58
2022/10/16 06:09:33;;;;;;;;;;;;;;;21.40;63.94;101994.63;7400499;19;1853;-55
2022/10/16 06:12:02;;;;;;;;;;;;;;;21.41;64.32;101982.91;7410284;19;1290;-57
2022/10/16 06:14:33;;;;;;;;;;;;;;;21.41;64.50;102001.75;7411374;19;1370;-55
2022/10/16 06:17:01;;;;;;;;;;;;;;;21.39;64.58;101984.88;7410846;19;1645;-58
2022/10/16 06:19:29;;;;;;;;;;;;;;;21.47;64.17;102003.13;7409088;19;1616;-58
2022/10/16 06:21:58;;;;;;;;;;;;;;;21.47;64.29;101999.56;7410764;19;1462;-58
2022/10/16 06:24:26;;;;;;;;;;;;;;;21.46;64.63;102009.47;7410822;19;1521;-57
2022/10/16 06:26:55;;;;;;;;;;;;;;;21.47;64.53;101996.88;7410879;19;1278;-64
2022/10/16 06:29:23;;;;;;;;;;;;;;;21.54;64.29;102008.88;7410294;19;1853;-66
2022/10/16 06:31:54;;;;;;;;;;;;;;;21.53;64.41;102004.50;7408198;19;1660;-64
2022/10/16 06:34:22;;;;;;;;;;;;;;;21.59;64.36;102014.75;7410654;19;1518;-67
2022/10/16 06:36:51;;;;;;;;;;;;;;;21.54;64.47;102019.66;7407039;19;1492;-69
2022/10/16 06:39:19;;;;;;;;;;;;;;;21.55;64.56;102018.69;7407963;19;1377;-67
2022/10/16 06:41:47;;;;;;;;;;;;;;;21.58;64.99;102007.66;7408254;19;1171;-64
2022/10/16 06:44:16;;;;;;;;;;;;;;;21.62;64.82;102011.81;7408639;19;1293;-65
2022/10/16 06:46:44;;;;;;;;;;;;;;;21.60;64.99;102013.78;7409396;19;1234;-58
2022/10/16 06:49:21;;;;;;;;;;;;;;;21.56;64.99;102012.31;7408985;19;1224;-59
2022/10/16 06:51:49;;;;;;;;;;;;;;;21.59;64.94;102018.31;7410309;19;1498;-59
2022/10/16 06:54:17;;;;;;;;;;;;;;;21.57;64.72;102016.72;7409427;19;1421;-59
2022/10/16 06:56:46;;;;;;;;;;;;;;;21.59;64.95;102009.38;7410211;19;1400;-59
2022/10/16 06:59:14;;;;;;;;;;;;;;;21.57;64.89;102011.34;7408646;19;1328;-62
2022/10/16 07:01:42;;;;;;;;;;;;;;;21.59;64.44;102031.75;7404349;19;1405;-76
2022/10/16 07:04:11;;;;;;;;;;;;;;;21.69;64.64;102018.44;7408344;19;1343;-69
2022/10/16 07:06:42;;;;;;;;;;;;;;;21.70;64.48;102022.81;7407166;19;1316;-69
2022/10/16 07:09:12;;;;;;;;;;;;;;;21.73;64.86;102035.19;7408901;19;1650;-66
2022/10/16 07:11:41;;;;;;;;;;;;;;;21.75;64.64;102028.69;7406803;19;1845;-72
2022/10/16 07:14:15;;;;;;;;;;;;;;;21.73;64.86;102025.28;7406560;19;1475;-65
2022/10/16 07:16:43;;;;;;;;;;;;;;;21.79;65.12;102015.84;7406921;19;1301;-70
2022/10/16 07:19:13;;;;;;;;;;;;;;;21.76;64.94;102021.47;7410786;19;1260;-70
2022/10/16 07:21:44;;;;;;;;;;;;;;;21.81;65.20;102001.28;7411904;19;1143;-64
2022/10/16 07:24:14;;;;;;;;;;;;;;;21.82;65.52;102020.97;7408142;19;1745;-62
2022/10/16 07:26:43;;;;;;;;;;;;;;;21.76;65.04;102016.94;7408719;19;1795;-61
2022/10/16 07:29:14;;;;;;;;;;;;;;;21.78;64.70;102009.59;7407755;19;1727;-65
2022/10/16 07:31:43;;;;;;;;;;;;;;;21.90;65.30;102028.44;7404792;19;1857;-63
2022/10/16 07:34:12;;;;;;;;;;;;;;;21.89;65.03;102029.44;7407041;19;1294;-62
2022/10/16 07:36:40;;;;;;;;;;;;;;;21.92;64.56;102018.41;7400373;19;1402;-61
2022/10/16 07:39:11;;;;;;;;;;;;;;;21.91;64.89;102025.63;7404007;19;1705;-61
2022/10/16 07:41:39;;;;;;;;;;;;;;;21.89;64.73;102021.34;7405737;19;1197;-68
2022/10/16 07:44:08;;;;;;;;;;;;;;;21.81;64.82;102020.13;7407630;19;1536;-60
2022/10/16 07:46:37;;;;;;;;;;;;;;;21.81;65.07;102017.44;7408157;19;1353;-60
2022/10/16 07:49:06;;;;;;;;;;;;;;;21.86;65.01;102025.13;7407491;19;1314;-68
2022/10/16 07:51:34;;;;;;;;;;;;;;;21.85;65.19;102026.13;7405845;19;1865;-60
2022/10/16 07:54:03;;;;;;;;;;;;;;;21.86;64.86;102019.75;7406308;19;1308;-59
2022/10/16 07:56:34;;;;;;;;;;;;;;;21.87;65.31;102015.25;7406727;19;1312;-67
2022/10/16 07:59:02;;;;;;;;;;;;;;;21.79;65.36;102027.47;7407037;19;1172;-65
2022/10/16 08:01:30;;;;;;;;;;;;;;;21.80;65.36;102017.56;7406899;19;1301;-60
2022/10/16 08:03:59;;;;;;;;;;;;;;;21.74;64.78;102018.91;7406610;19;1446;-58
2022/10/16 08:06:27;;;;;;;;;;;;;;;21.79;65.30;102037.41;7405001;19;1299;-60
2022/10/16 08:08:56;;;;;;;;;;;;;;;21.78;64.92;102032.97;7405822;19;1327;-60
2022/10/16 08:11:24;;;;;;;;;;;;;;;21.76;63.82;102032.25;7402621;19;1869;-61
2022/10/16 08:13:55;;;;;;;;;;;;;;;21.77;63.34;102026.75;7402467;19;1570;-59
2022/10/16 08:16:23;;;;;;;;;;;;;;;21.79;62.08;102034.72;7405750;19;1422;-59
2022/10/16 08:18:52;;;;;;;;;;;;;;;21.71;62.35;102035.31;7407993;19;1351;-67
2022/10/16 08:21:22;;;;;;;;;;;;;;;21.59;61.50;102031.75;7405963;19;1300;-67
2022/10/16 08:23:51;;;;;;;;;;;;;;;21.53;61.45;102039.47;7402985;19;1366;-60
2022/10/16 08:26:19;;;;;;;;;;;;;;;21.54;61.73;102043.88;7406387;19;1548;-61
2022/10/16 08:28:48;;;;;;;;;;;;;;;21.52;61.03;102029.69;7401714;19;1696;-68
2022/10/16 08:31:19;;;;;;;;;;;;;;;21.54;60.48;102027.72;7405137;19;1860;-68
2022/10/16 08:33:47;;;;;;;;;;;;;;;21.50;60.35;102027.09;7406956;19;1749;-61
2022/10/16 08:36:16;;;;;;;;;;;;;;;21.51;59.84;102036.91;7402867;19;1789;-60
2022/10/16 08:38:44;;;;;;;;;;;;;;;21.48;59.79;102039.81;7407292;19;1476;-67
2022/10/16 08:41:26;;;;;;;;;;;;;;;21.47;59.19;102042.63;7408110;19;1298;-61
2022/10/16 08:44:12;;;;;;;;;;;;;;;21.47;58.70;102037.25;7405847;19;1394;-61
2022/10/16 08:46:49;;;;;;;;;;;;;;;21.45;58.53;102040.09;7406944;19;1377;-61
2022/10/16 08:49:18;;;;;;;;;;;;;;;21.44;58.17;102032.97;7404601;19;1279;-61
2022/10/16 08:51:49;;;;;;;;;;;;;;;21.36;57.77;102033.53;7401380;19;1866;-61
2022/10/16 08:54:23;;;;;;;;;;;;;;;21.39;57.10;102036.00;7404944;19;1336;-67
2022/10/16 08:56:52;;;;;;;;;;;;;;;21.38;56.36;102044.19;7402813;19;1609;-69
2022/10/16 08:59:21;;;;;;;;;;;;;;;21.36;55.80;102047.00;7404916;19;1252;-60
2022/10/16 09:01:53;;;;;;;;;;;;;;;21.19;53.22;102040.25;7404529;19;1316;-68
2022/10/16 09:04:36;;;;;;;;;;;;;;;21.05;50.41;102040.47;7400959;19;1378;-67
2022/10/16 09:07:06;;;;;;;;;;;;;;;21.05;49.99;102043.16;7404168;19;1494;-68
2022/10/16 09:09:49;;;;;;;;;;;;;;;21.16;51.09;102040.47;7403882;19;1358;-68
2022/10/16 09:12:22;;;;;;;;;;;;;;;21.11;50.18;102039.09;7399860;19;1897;-68
2022/10/16 09:14:57;;;;;;;;;;;;;;;20.97;49.32;102035.66;7403148;19;1377;-68
2022/10/16 09:17:34;;;;;;;;;;;;;;;20.99;49.62;102022.09;7399341;19;1737;-68
2022/10/16 09:20:13;;;;;;;;;;;;;;;21.02;49.46;102041.53;7401304;19;1463;-68
2022/10/16 09:22:41;;;;;;;;;;;;;;;21.08;48.45;102045.59;7402334;19;1590;-67
2022/10/16 09:25:14;;;;;;;;;;;;;;;20.97;48.23;102034.78;7403191;19;1432;-67
2022/10/16 09:27:42;;;;;;;;;;;;;;;20.88;47.98;102046.28;7404544;19;1690;-67
2022/10/16 09:30:15;;;;;;;;;;;;;;;20.82;47.64;102044.91;7400284;19;1752;-68
2022/10/16 09:32:47;;;;;;;;;;;;;;;20.89;47.80;102037.22;7399996;19;1393;-68
2022/10/16 09:35:17;;;;;;;;;;;;;;;20.94;47.60;102033.19;7403284;19;1409;-68
2022/10/16 09:37:48;;;;;;;;;;;;;;;20.92;46.80;102043.22;7399994;19;1316;-68
2022/10/16 09:40:26;;;;;;;;;;;;;;;20.85;47.96;102032.09;7401051;19;1437;-67
2022/10/16 09:42:56;;;;;;;;;;;;;;;20.94;47.88;102037.72;7401635;19;1773;-67
2022/10/16 09:45:26;;;;;;;;;;;;;;;20.92;47.68;102010.09;7403232;19;1439;-61
2022/10/16 09:47:57;;;;;;;;;;;;;;;20.85;46.62;102032.09;7403091;19;1489;-61
2022/10/16 09:50:26;;;;;;;;;;;;;;;20.85;47.92;102032.09;7401982;19;1857;-67
2022/10/16 09:53:06;;;;;;;;;;;;;;;20.92;46.50;102021.72;7403008;19;1452;-67
2022/10/16 09:55:34;;;;;;;;;;;;;;;20.91;47.50;102020.00;7402775;19;1353;-68
2022/10/16 09:58:02;;;;;;;;;;;;;;;20.92;47.41;102008.25;7404689;19;1498;-68
2022/10/16 10:00:31;;;;;;;;;;;;;;;20.97;47.30;102000.72;7403179;19;1454;-68
2022/10/16 10:03:03;;;;;;;;;;;;;;;21.16;49.00;101996.59;7404003;19;1510;-71
2022/10/16 10:05:31;;;;;;;;;;;;;;;21.35;48.98;101996.00;7403578;19;1349;-68
2022/10/16 10:08:02;;;;;;;;;;;;;;;21.40;49.21;102000.03;7404104;19;1344;-65
2022/10/16 10:10:32;;;;;;;;;;;;;;;21.47;49.72;101999.56;7402220;19;1850;-63
2022/10/16 10:13:00;;;;;;;;;;;;;;;21.50;50.11;102004.72;7404175;19;1507;-62
2022/10/16 10:15:35;;;;;;;;;;;;;;;21.49;51.47;102001.19;7404834;19;1640;-60
2022/10/16 10:18:19;;;;;;;;;;;;;;;21.48;51.36;102007.53;7404326;19;1605;-60
2022/10/16 10:20:48;;;;;;;;;;;;;;;21.50;51.64;101999.34;7404836;19;993;-60
2022/10/16 10:23:23;;;;;;;;;;;;;;;21.53;52.07;102004.50;7403962;19;1723;-59
2022/10/16 10:25:56;;;;;;;;;;;;;;;21.54;52.56;101998.09;7403668;19;1661;-59
2022/10/16 10:28:42;;;;;;;;;;;;;;;21.60;53.05;102000.31;7402662;19;1715;-59
2022/10/16 10:31:14;;;;;;;;;;;;;;;21.60;53.88;101986.84;7401918;19;1865;-59
2022/10/16 10:33:49;;;;;;;;;;;;;;;21.54;53.57;101992.72;7402099;19;1801;-60
2022/10/16 10:36:28;;;;;;;;;;;;;;;21.62;53.17;101998.34;7403287;19;1412;-63
2022/10/16 10:38:59;;;;;;;;;;;;;;;21.56;53.53;101994.31;7403445;19;1563;-59
2022/10/16 10:41:37;;;;;;;;;;;;;;;21.59;53.95;101998.63;7402630;19;1722;-61
2022/10/16 10:44:11;;;;;;;;;;;;;;;21.77;54.14;101991.75;7401382;19;1459;-62
2022/10/16 10:46:43;;;;;;;;;;;;;;;21.80;55.43;101990.63;7401488;19;1546;-59
2022/10/16 10:49:20;;;;;;;;;;;;;;;21.84;56.51;101986.69;7401427;19;1621;-60
2022/10/16 10:51:57;;;;;;;;;;;;;;;21.85;56.23;101978.50;7401549;19;1837;-59
2022/10/16 10:54:31;;;;;;;;;;;;;;;21.81;56.77;101977.03;7398790;19;1409;-60
2022/10/16 10:57:02;;;;;;;;;;;;;;;21.80;56.88;101985.25;7408707;19;1297;-59
2022/10/16 10:59:45;;;;;;;;;;;;;;;21.81;57.09;101982.44;7412830;19;1401;-60
2022/10/16 11:02:17;;;;;;;;;;;;;;;21.87;57.51;101985.63;7413442;19;1280;-70
2022/10/16 11:05:01;;;;;;;;;;;;;;;21.83;57.40;101976.94;7411566;19;1768;-67
2022/10/16 11:07:31;;;;;;;;;;;;;;;21.84;57.62;101984.88;7415531;19;1383;-69
2022/10/16 11:10:02;;;;;;;;;;;;;;;21.84;57.79;101984.88;7413879;19;1466;-71
2022/10/16 11:12:32;;;;;;;;;;;;;;;21.81;57.55;101979.75;7412012;19;1865;-69
2022/10/16 11:15:04;;;;;;;;;;;;;;;21.82;57.63;101973.34;7411523;19;1342;-69
2022/10/16 11:17:34;;;;;;;;;;;;;;;21.82;57.95;101976.06;7413599;19;1545;-66
2022/10/16 11:20:13;;;;;;;;;;;;;;;21.83;58.13;101980.47;7412786;19;1541;-66
2022/10/16 11:22:43;;;;;;;;;;;;;;;21.86;58.16;101979.34;7413009;19;1510;-76
2022/10/16 11:25:16;;;;;;;;;;;;;;;21.88;58.04;101971.16;7412910;19;1619;-67
2022/10/16 11:27:47;;;;;;;;;;;;;;;21.86;57.91;101971.28;7410777;19;1359;-68
2022/10/16 11:30:18;;;;;;;;;;;;;;;21.85;58.12;101966.88;7412692;19;1613;-70
2022/10/16 11:32:55;;;;;;;;;;;;;;;21.87;56.77;101969.47;7411319;19;1833;-65
2022/10/16 11:35:28;;;;;;;;;;;;;;;21.90;58.13;101974.59;7412694;19;1652;-60
2022/10/16 11:37:59;;;;;;;;;;;;;;;21.89;56.88;101959.41;7409139;19;1523;-64
2022/10/16 11:40:30;;;;;;;;;;;;;;;21.90;57.00;101958.44;7410272;19;1439;-64
2022/10/16 11:43:02;;;;;;;;;;;;;;;21.91;57.46;101962.84;7410171;19;1554;-64
2022/10/16 11:45:33;;;;;;;;;;;;;;;21.93;57.11;101964.41;7411659;19;1541;-63
2022/10/16 11:48:04;;;;;;;;;;;;;;;21.91;57.44;101968.22;7411563;19;1429;-64
2022/10/16 11:50:38;;;;;;;;;;;;;;;21.92;57.18;101951.06;7410514;19;1779;-66
2022/10/16 11:53:12;;;;;;;;;;;;;;;21.88;56.81;101955.84;7407861;19;1842;-65
2022/10/16 11:55:42;;;;;;;;;;;;;;;21.91;57.08;101958.31;7411577;19;1597;-68
2022/10/16 11:58:16;;;;;;;;;;;;;;;21.98;57.09;101972.97;7411628;19;1339;-69
2022/10/16 12:00:49;;;;;;;;;;;;;;;21.98;56.82;101961.34;7410777;19;1534;-67
2022/10/16 12:03:21;;;;;;;;;;;;;;;21.96;56.87;101952.53;7412082;19;1316;-69
2022/10/16 12:05:58;;;;;;;;;;;;;;;21.98;56.79;101964.88;7413653;19;1221;-67
2022/10/16 12:08:27;;;;;;;;;;;;;;;22.04;57.18;101960.84;7411578;19;1480;-68
2022/10/16 12:10:56;;;;;;;;;;;;;;;22.00;57.23;101972.84;7410858;19;1790;-68
2022/10/16 12:13:31;;;;;;;;;;;;;;;22.00;57.78;101978.22;7408152;19;1863;-67
2022/10/16 12:16:07;;;;;;;;;;;;;;;21.97;56.80;101959.66;7410118;19;1503;-67
2022/10/16 12:18:35;;;;;;;;;;;;;;;22.00;57.98;101975.53;7409304;19;1475;-66
2022/10/16 12:21:07;;;;;;;;;;;;;;;21.95;57.61;101980.47;7416237;19;1340;-64
2022/10/16 12:23:39;;;;;;;;;;;;;;;21.98;57.79;101982.88;7407738;19;1679;-64
2022/10/16 12:26:07;;;;;;;;;;;;;;;21.96;57.66;101974.06;7409924;19;1417;-64
2022/10/16 12:28:36;;;;;;;;;;;;;;;21.94;57.86;101981.44;7407224;19;1435;-66
2022/10/16 12:31:06;;;;;;;;;;;;;;;21.96;57.96;101984.84;7408975;19;1355;-64
2022/10/16 12:33:35;;;;;;;;;;;;;;;21.97;57.80;101989.28;7404769;19;1822;-67
2022/10/16 12:36:09;;;;;;;;;;;;;;;22.02;57.72;101995.13;7407435;19;1413;-68
2022/10/16 12:38:41;;;;;;;;;;;;;;;21.98;58.13;101977.50;7406382;19;1319;-67
2022/10/16 12:41:10;;;;;;;;;;;;;;;21.96;57.77;101968.69;7405789;19;1363;-66
2022/10/16 12:43:42;;;;;;;;;;;;;;;21.98;57.95;101978.34;7404720;19;1234;-63
2022/10/16 12:46:25;;;;;;;;;;;;;;;21.97;57.91;101981.19;7404515;19;1387;-66
2022/10/16 12:48:55;;;;;;;;;;;;;;;21.93;58.22;101974.34;7405210;19;1589;-71
2022/10/16 12:51:28;;;;;;;;;;;;;;;21.97;59.31;101986.56;7406828;19;1862;-65
2022/10/16 12:54:03;;;;;;;;;;;;;;;21.81;59.70;101974.34;7407486;19;1893;-65
2022/10/16 12:56:38;;;;;;;;;;;;;;;21.78;59.82;101977.28;7407708;19;1428;-68
2022/10/16 12:59:12;;;;;;;;;;;;;;;21.75;59.85;101972.16;7408003;19;1454;-69
2022/10/16 13:01:45;;;;;;;;;;;;;;;21.85;59.72;101977.66;7401488;19;1712;-72
2022/10/16 13:04:28;;;;;;;;;;;;;;;21.79;60.21;101995.16;7406192;19;1320;-65